Terminal Aerodrome Forecast
Issued by NWS

Home | Current Version | Previous Version | Text Only | Print | Product List | Glossary On
Versions: 1 2 3 4 5 6 7 8 9 10 11 12 13 14 15
369
FTUS45 KFGZ 292331
TAFPGA
TAF
KPGA 292331Z 3000/3024 35006KT P6SM SKC
     FM300200 VRB05KT P6SM FEW250
     FM302000 24018G28KT P6SM SCT150=

USA.gov is the U.S. government's official web portal to all federal, state and local government web resources and services.